sensor_id;sensor_type;location;lat;lon;timestamp;pressure;altitude;pressure_sealevel;temperature;humidity
60307;BME280;46155;52.364;6.580;2022-07-18T03:00:33;102258.81;;;14.50;78.04
60307;BME280;46155;52.364;6.580;2022-07-18T03:02:58;102253.53;;;14.50;78.31
60307;BME280;46155;52.364;6.580;2022-07-18T03:05:23;102246.66;;;14.52;78.38
60307;BME280;46155;52.364;6.580;2022-07-18T03:07:49;102258.81;;;14.50;79.00
60307;BME280;46155;52.364;6.580;2022-07-18T03:10:14;102256.78;;;14.45;79.67
60307;BME280;46155;52.364;6.580;2022-07-18T03:12:41;102253.94;;;14.42;80.54
60307;BME280;46155;52.364;6.580;2022-07-18T03:15:07;102256.38;;;14.39;80.73
60307;BME280;46155;52.364;6.580;2022-07-18T03:17:33;102242.97;;;14.36;80.02
60307;BME280;46155;52.364;6.580;2022-07-18T03:19:58;102248.44;;;14.39;79.12
60307;BME280;46155;52.364;6.580;2022-07-18T03:22:25;102250.28;;;14.40;78.85
60307;BME280;46155;52.364;6.580;2022-07-18T03:24:54;102251.41;;;14.44;78.84
60307;BME280;46155;52.364;6.580;2022-07-18T03:27:19;102247.84;;;14.43;78.54
60307;BME280;46155;52.364;6.580;2022-07-18T03:29:47;102247.84;;;14.43;77.99
60307;BME280;46155;52.364;6.580;2022-07-18T03:32:14;102245.22;;;14.43;78.38
60307;BME280;46155;52.364;6.580;2022-07-18T03:34:39;102244.06;;;14.40;77.77
60307;BME280;46155;52.364;6.580;2022-07-18T03:37:04;102245.16;;;14.30;77.56
60307;BME280;46155;52.364;6.580;2022-07-18T03:39:29;102251.03;;;14.26;78.32
60307;BME280;46155;52.364;6.580;2022-07-18T03:41:55;102249.03;;;14.22;78.62
60307;BME280;46155;52.364;6.580;2022-07-18T03:44:21;102248.19;;;14.23;78.67
60307;BME280;46155;52.364;6.580;2022-07-18T03:46:46;102242.91;;;14.23;78.86
60307;BME280;46155;52.364;6.580;2022-07-18T03:49:15;102239.47;;;14.24;79.01
60307;BME280;46155;52.364;6.580;2022-07-18T03:51:41;102231.84;;;14.15;77.92
60307;BME280;46155;52.364;6.580;2022-07-18T03:54:07;102239.66;;;14.14;78.61
60307;BME280;46155;52.364;6.580;2022-07-18T03:56:35;102235.66;;;14.07;78.80
60307;BME280;46155;52.364;6.580;2022-07-18T03:59:02;102247.13;;;14.07;79.48
60307;BME280;46155;52.364;6.580;2022-07-18T04:01:27;102232.94;;;14.05;80.03
60307;BME280;46155;52.364;6.580;2022-07-18T04:03:52;102236.81;;;14.10;80.25
60307;BME280;46155;52.364;6.580;2022-07-18T04:06:19;102237.72;;;14.11;80.36
60307;BME280;46155;52.364;6.580;2022-07-18T04:08:46;102229.69;;;14.09;80.40
60307;BME280;46155;52.364;6.580;2022-07-18T04:11:12;102233.53;;;14.15;80.50
60307;BME280;46155;52.364;6.580;2022-07-18T04:13:41;102221.56;;;14.20;80.43
60307;BME280;46155;52.364;6.580;2022-07-18T04:16:07;102220.06;;;14.23;80.49
60307;BME280;46155;52.364;6.580;2022-07-18T04:18:37;102222.22;;;14.29;80.60
60307;BME280;46155;52.364;6.580;2022-07-18T04:21:04;102220.59;;;14.31;80.74
60307;BME280;46155;52.364;6.580;2022-07-18T04:23:30;102218.03;;;14.33;80.63
60307;BME280;46155;52.364;6.580;2022-07-18T04:25:55;102224.47;;;14.36;80.80
60307;BME280;46155;52.364;6.580;2022-07-18T04:28:21;102226.28;;;14.37;81.08
60307;BME280;46155;52.364;6.580;2022-07-18T04:30:47;102210.94;;;14.32;81.49
60307;BME280;46155;52.364;6.580;2022-07-18T04:33:14;102217.56;;;14.38;80.97
60307;BME280;46155;52.364;6.580;2022-07-18T04:35:42;102199.84;;;14.37;80.87
60307;BME280;46155;52.364;6.580;2022-07-18T04:38:09;102202.13;;;14.44;80.91
60307;BME280;46155;52.364;6.580;2022-07-18T04:40:36;102198.06;;;14.50;81.13
60307;BME280;46155;52.364;6.580;2022-07-18T04:43:02;102198.06;;;14.50;81.39
60307;BME280;46155;52.364;6.580;2022-07-18T04:45:29;102195.59;;;14.53;81.34
60307;BME280;46155;52.364;6.580;2022-07-18T04:47:56;102192.56;;;14.60;81.09
60307;BME280;46155;52.364;6.580;2022-07-18T04:50:25;102199.91;;;14.64;80.60
60307;BME280;46155;52.364;6.580;2022-07-18T04:52:57;102190.38;;;14.66;80.54
60307;BME280;46155;52.364;6.580;2022-07-18T04:55:26;102189.78;;;14.70;79.98
60307;BME280;46155;52.364;6.580;2022-07-18T04:57:53;102198.28;;;14.79;78.86
60307;BME280;46155;52.364;6.580;2022-07-18T05:00:23;102196.06;;;14.86;78.82
60307;BME280;46155;52.364;6.580;2022-07-18T05:02:51;102208.03;;;14.94;78.03
60307;BME280;46155;52.364;6.580;2022-07-18T05:05:19;102209.38;;;15.01;77.69
60307;BME280;46155;52.364;6.580;2022-07-18T05:07:46;102204.59;;;15.08;77.46
60307;BME280;46155;52.364;6.580;2022-07-18T05:10:13;102198.88;;;15.15;78.00
60307;BME280;46155;52.364;6.580;2022-07-18T05:12:40;102202.09;;;15.25;77.17
60307;BME280;46155;52.364;6.580;2022-07-18T05:15:07;102206.34;;;15.36;76.47
60307;BME280;46155;52.364;6.580;2022-07-18T05:17:35;102188.09;;;15.41;76.34
60307;BME280;46155;52.364;6.580;2022-07-18T05:20:01;102192.66;;;15.57;75.52
60307;BME280;46155;52.364;6.580;2022-07-18T05:22:26;102194.06;;;15.65;75.64
60307;BME280;46155;52.364;6.580;2022-07-18T05:24:51;102187.28;;;15.70;77.44
60307;BME280;46155;52.364;6.580;2022-07-18T05:27:17;102189.72;;;15.80;77.16
60307;BME280;46155;52.364;6.580;2022-07-18T05:29:43;102190.19;;;15.88;77.21
60307;BME280;46155;52.364;6.580;2022-07-18T05:32:08;102199.81;;;16.01;75.59
60307;BME280;46155;52.364;6.580;2022-07-18T05:34:34;102203.84;;;16.09;75.75
60307;BME280;46155;52.364;6.580;2022-07-18T05:36:59;102198.00;;;16.15;75.53
60307;BME280;46155;52.364;6.580;2022-07-18T05:39:25;102210.16;;;16.26;76.36
60307;BME280;46155;52.364;6.580;2022-07-18T05:41:53;102212.63;;;16.38;74.73
60307;BME280;46155;52.364;6.580;2022-07-18T05:44:18;102219.94;;;16.57;74.97
60307;BME280;46155;52.364;6.580;2022-07-18T05:46:52;102210.50;;;16.77;72.26
60307;BME280;46155;52.364;6.580;2022-07-18T05:49:18;102210.38;;;16.91;73.69
60307;BME280;46155;52.364;6.580;2022-07-18T05:51:43;102203.16;;;17.03;71.40
60307;BME280;46155;52.364;6.580;2022-07-18T05:54:08;102199.34;;;17.14;69.65
60307;BME280;46155;52.364;6.580;2022-07-18T05:56:34;102183.44;;;17.14;67.49
60307;BME280;46155;52.364;6.580;2022-07-18T05:58:59;102187.22;;;17.19;67.92
60307;BME280;46155;52.364;6.580;2022-07-18T06:01:24;102186.94;;;17.30;68.06
60307;BME280;46155;52.364;6.580;2022-07-18T06:03:50;102182.97;;;17.38;69.35
60307;BME280;46155;52.364;6.580;2022-07-18T06:06:15;102170.69;;;17.40;67.81
60307;BME280;46155;52.364;6.580;2022-07-18T06:08:41;102175.66;;;17.50;67.41
60307;BME280;46155;52.364;6.580;2022-07-18T06:11:07;102174.19;;;17.55;66.91
60307;BME280;46155;52.364;6.580;2022-07-18T06:13:35;102166.22;;;17.55;65.44
60307;BME280;46155;52.364;6.580;2022-07-18T06:16:00;102168.94;;;17.57;66.98
60307;BME280;46155;52.364;6.580;2022-07-18T06:18:25;102164.31;;;17.69;68.02
60307;BME280;46155;52.364;6.580;2022-07-18T06:20:51;102154.50;;;17.68;67.53
60307;BME280;46155;52.364;6.580;2022-07-18T06:23:17;102162.63;;;17.71;67.81
60307;BME280;46155;52.364;6.580;2022-07-18T06:25:42;102165.19;;;17.70;66.16
60307;BME280;46155;52.364;6.580;2022-07-18T06:28:07;102158.25;;;17.72;66.19
60307;BME280;46155;52.364;6.580;2022-07-18T06:30:32;102161.06;;;17.75;66.66
60307;BME280;46155;52.364;6.580;2022-07-18T06:32:58;102162.38;;;17.83;67.51
60307;BME280;46155;52.364;6.580;2022-07-18T06:35:23;102160.88;;;17.88;67.99
60307;BME280;46155;52.364;6.580;2022-07-18T06:37:48;102163.44;;;17.87;65.93
60307;BME280;46155;52.364;6.580;2022-07-18T06:40:14;102156.47;;;17.89;66.19
60307;BME280;46155;52.364;6.580;2022-07-18T06:42:39;102155.94;;;17.95;66.21
60307;BME280;46155;52.364;6.580;2022-07-18T06:45:06;102155.50;;;18.03;65.63
60307;BME280;46155;52.364;6.580;2022-07-18T06:47:31;102137.13;;;18.08;65.11
60307;BME280;46155;52.364;6.580;2022-07-18T06:49:56;102140.25;;;18.17;65.48
60307;BME280;46155;52.364;6.580;2022-07-18T06:52:22;102148.75;;;18.28;66.14
60307;BME280;46155;52.364;6.580;2022-07-18T06:54:47;102158.19;;;18.39;64.39
60307;BME280;46155;52.364;6.580;2022-07-18T06:57:12;102154.63;;;18.57;64.13
60307;BME280;46155;52.364;6.580;2022-07-18T06:59:38;102159.66;;;18.69;64.74
60307;BME280;46155;52.364;6.580;2022-07-18T07:02:03;102167.72;;;18.88;63.49
60307;BME280;46155;52.364;6.580;2022-07-18T07:04:29;102164.81;;;19.02;64.18
60307;BME280;46155;52.364;6.580;2022-07-18T07:06:55;102169.97;;;19.17;64.41
60307;BME280;46155;52.364;6.580;2022-07-18T07:09:20;102164.38;;;19.30;62.89
60307;BME280;46155;52.364;6.580;2022-07-18T07:11:45;102165.84;;;19.43;62.91
60307;BME280;46155;52.364;6.580;2022-07-18T07:14:10;102160.09;;;19.53;61.75
60307;BME280;46155;52.364;6.580;2022-07-18T07:16:36;102155.06;;;19.59;62.18
60307;BME280;46155;52.364;6.580;2022-07-18T07:19:01;102156.31;;;19.68;61.66
60307;BME280;46155;52.364;6.580;2022-07-18T07:21:26;102162.97;;;19.77;63.23
60307;BME280;46155;52.364;6.580;2022-07-18T07:23:52;102159.34;;;19.95;61.76
60307;BME280;46155;52.364;6.580;2022-07-18T07:26:17;102158.81;;;20.04;61.77
60307;BME280;46155;52.364;6.580;2022-07-18T07:28:42;102157.47;;;20.13;60.26
60307;BME280;46155;52.364;6.580;2022-07-18T07:31:08;102157.94;;;20.24;60.08
60307;BME280;46155;52.364;6.580;2022-07-18T07:33:33;102162.28;;;20.43;60.97
60307;BME280;46155;52.364;6.580;2022-07-18T07:36:00;102163.22;;;20.67;60.45
60307;BME280;46155;52.364;6.580;2022-07-18T07:38:25;102156.97;;;20.87;56.89
60307;BME280;46155;52.364;6.580;2022-07-18T07:40:53;102158.31;;;20.98;57.71
60307;BME280;46155;52.364;6.580;2022-07-18T07:43:19;102159.88;;;21.16;59.25
60307;BME280;46155;52.364;6.580;2022-07-18T07:45:48;102163.50;;;21.41;59.51
60307;BME280;46155;52.364;6.580;2022-07-18T07:48:15;102147.47;;;21.63;57.91
60307;BME280;46155;52.364;6.580;2022-07-18T07:50:40;102155.28;;;21.83;56.04
60307;BME280;46155;52.364;6.580;2022-07-18T07:53:06;102139.91;;;22.01;55.58
60307;BME280;46155;52.364;6.580;2022-07-18T07:55:31;102143.22;;;22.20;52.49
60307;BME280;46155;52.364;6.580;2022-07-18T07:57:57;102149.72;;;22.28;52.37
60307;BME280;46155;52.364;6.580;2022-07-18T08:00:22;102150.75;;;22.32;53.28
60307;BME280;46155;52.364;6.580;2022-07-18T08:02:58;102157.44;;;22.45;54.75
60307;BME280;46155;52.364;6.580;2022-07-18T08:05:24;102154.13;;;22.52;51.11
60307;BME280;46155;52.364;6.580;2022-07-18T08:07:49;102153.41;;;22.58;52.10
60307;BME280;46155;52.364;6.580;2022-07-18T08:10:15;102161.97;;;22.75;51.81
60307;BME280;46155;52.364;6.580;2022-07-18T08:12:40;102157.22;;;22.93;49.89
60307;BME280;46155;52.364;6.580;2022-07-18T08:15:06;102145.16;;;23.08;51.06
60307;BME280;46155;52.364;6.580;2022-07-18T08:17:32;102151.31;;;23.32;51.75
60307;BME280;46155;52.364;6.580;2022-07-18T08:19:57;102148.09;;;23.46;49.81
60307;BME280;46155;52.364;6.580;2022-07-18T08:22:23;102146.47;;;23.51;50.90
60307;BME280;46155;52.364;6.580;2022-07-18T08:24:48;102135.25;;;23.66;47.92
60307;BME280;46155;52.364;6.580;2022-07-18T08:27:14;102134.25;;;23.61;45.13
60307;BME280;46155;52.364;6.580;2022-07-18T08:29:40;102137.81;;;23.61;47.08
60307;BME280;46155;52.364;6.580;2022-07-18T08:32:05;102135.50;;;23.73;48.02
60307;BME280;46155;52.364;6.580;2022-07-18T08:34:30;102128.81;;;23.89;45.84
60307;BME280;46155;52.364;6.580;2022-07-18T08:36:56;102124.84;;;24.09;46.49
60307;BME280;46155;52.364;6.580;2022-07-18T08:39:21;102127.97;;;24.26;47.46
60307;BME280;46155;52.364;6.580;2022-07-18T08:41:50;102125.47;;;24.33;46.17
60307;BME280;46155;52.364;6.580;2022-07-18T08:44:16;102123.03;;;24.43;47.02
60307;BME280;46155;52.364;6.580;2022-07-18T08:46:49;102134.94;;;24.54;46.25
60307;BME280;46155;52.364;6.580;2022-07-18T08:49:15;102129.78;;;24.63;44.98
60307;BME280;46155;52.364;6.580;2022-07-18T08:51:42;102126.41;;;24.72;45.86
60307;BME280;46155;52.364;6.580;2022-07-18T08:54:08;102126.63;;;24.80;44.13
60307;BME280;46155;52.364;6.580;2022-07-18T08:56:34;102122.28;;;24.86;45.41
60307;BME280;46155;52.364;6.580;2022-07-18T08:59:03;102117.19;;;24.99;42.73
60307;BME280;46155;52.364;6.580;2022-07-18T09:01:29;102129.06;;;25.10;43.89
60307;BME280;46155;52.364;6.580;2022-07-18T09:03:55;102129.19;;;25.16;45.08
60307;BME280;46155;52.364;6.580;2022-07-18T09:06:49;102129.31;;;25.21;41.61
60307;BME280;46155;52.364;6.580;2022-07-18T09:09:17;102131.03;;;25.19;44.99
60307;BME280;46155;52.364;6.580;2022-07-18T09:16:44;102123.19;;;25.72;42.99
60307;BME280;46155;52.364;6.580;2022-07-18T09:19:23;102134.19;;;25.85;40.67
60307;BME280;46155;52.364;6.580;2022-07-18T09:21:49;102134.44;;;25.97;42.07
60307;BME280;46155;52.364;6.580;2022-07-18T09:24:14;102129.34;;;26.12;42.17
60307;BME280;46155;52.364;6.580;2022-07-18T09:26:43;102125.13;;;26.28;41.55
60307;BME280;46155;52.364;6.580;2022-07-18T09:29:16;102130.78;;;26.44;41.21
60307;BME280;46155;52.364;6.580;2022-07-18T09:31:51;102125.53;;;26.55;40.63
60307;BME280;46155;52.364;6.580;2022-07-18T09:34:35;102122.91;;;26.58;41.10
60307;BME280;46155;52.364;6.580;2022-07-18T09:37:01;102125.00;;;26.76;37.30
60307;BME280;46155;52.364;6.580;2022-07-18T09:39:26;102123.03;;;26.67;36.98
60307;BME280;46155;52.364;6.580;2022-07-18T09:41:51;102115.59;;;26.51;37.23
60307;BME280;46155;52.364;6.580;2022-07-18T09:44:18;102114.75;;;26.53;38.85
60307;BME280;46155;52.364;6.580;2022-07-18T09:47:03;102112.28;;;26.67;39.00
60307;BME280;46155;52.364;6.580;2022-07-18T09:49:32;102117.13;;;26.90;37.71
60307;BME280;46155;52.364;6.580;2022-07-18T09:52:04;102116.50;;;27.11;37.29
60307;BME280;46155;52.364;6.580;2022-07-18T09:54:40;102109.50;;;27.27;35.86
60307;BME280;46155;52.364;6.580;2022-07-18T09:57:07;102105.16;;;27.35;37.54
60307;BME280;46155;52.364;6.580;2022-07-18T09:59:32;102098.91;;;27.39;37.31
60307;BME280;46155;52.364;6.580;2022-07-18T10:01:59;102098.16;;;27.53;33.36
60307;BME280;46155;52.364;6.580;2022-07-18T10:04:24;102095.53;;;27.57;32.76
60307;BME280;46155;52.364;6.580;2022-07-18T10:06:50;102093.81;;;27.67;34.72
60307;BME280;46155;52.364;6.580;2022-07-18T10:09:15;102098.25;;;27.60;33.83
60307;BME280;46155;52.364;6.580;2022-07-18T10:11:41;102095.53;;;27.59;32.69
60307;BME280;46155;52.364;6.580;2022-07-18T10:14:07;102086.66;;;27.69;33.46
60307;BME280;46155;52.364;6.580;2022-07-18T10:16:33;102084.94;;;27.79;33.41
60307;BME280;46155;52.364;6.580;2022-07-18T10:18:58;102092.25;;;27.91;34.51
60307;BME280;46155;52.364;6.580;2022-07-18T10:21:25;102092.44;;;28.09;32.63
60307;BME280;46155;52.364;6.580;2022-07-18T10:23:54;102085.31;;;28.14;32.26
60307;BME280;46155;52.364;6.580;2022-07-18T10:26:25;102080.75;;;28.09;30.68
60307;BME280;46155;52.364;6.580;2022-07-18T10:29:09;102085.22;;;28.05;31.58
60307;BME280;46155;52.364;6.580;2022-07-18T10:31:36;102086.16;;;28.10;31.77
60307;BME280;46155;52.364;6.580;2022-07-18T10:36:31;102085.34;;;28.24;30.57
60307;BME280;46155;52.364;6.580;2022-07-18T10:39:11;102080.00;;;28.28;30.07
60307;BME280;46155;52.364;6.580;2022-07-18T10:47:04;102078.53;;;28.74;30.94
60307;BME280;46155;52.364;6.580;2022-07-18T10:57:37;102079.59;;;29.11;30.58
60307;BME280;46155;52.364;6.580;2022-07-18T11:00:16;102075.19;;;29.26;29.44
60307;BME280;46155;52.364;6.580;2022-07-18T11:02:47;102077.00;;;29.28;28.83
60307;BME280;46155;52.364;6.580;2022-07-18T11:15:55;102070.75;;;29.49;26.31
60307;BME280;46155;52.364;6.580;2022-07-18T11:18:22;102070.69;;;29.31;26.99
60307;BME280;46155;52.364;6.580;2022-07-18T11:20:48;102065.16;;;29.05;27.84
60307;BME280;46155;52.364;6.580;2022-07-18T11:23:21;102062.41;;;28.94;28.84
60307;BME280;46155;52.364;6.580;2022-07-18T11:25:49;102060.59;;;28.93;28.42
60307;BME280;46155;52.364;6.580;2022-07-18T11:28:15;102055.19;;;28.93;29.07
60307;BME280;46155;52.364;6.580;2022-07-18T11:30:42;102050.75;;;29.12;30.62
60307;BME280;46155;52.364;6.580;2022-07-18T11:33:25;102044.56;;;29.36;29.40
60307;BME280;46155;52.364;6.580;2022-07-18T11:35:51;102044.59;;;29.64;30.85
60307;BME280;46155;52.364;6.580;2022-07-18T11:38:17;102041.03;;;29.86;29.50
60307;BME280;46155;52.364;6.580;2022-07-18T11:40:52;102035.66;;;29.93;27.22
60307;BME280;46155;52.364;6.580;2022-07-18T11:43:24;102034.72;;;29.89;28.13
60307;BME280;46155;52.364;6.580;2022-07-18T11:46:20;102032.03;;;29.86;27.62
60307;BME280;46155;52.364;6.580;2022-07-18T11:48:48;102025.72;;;29.87;27.23
60307;BME280;46155;52.364;6.580;2022-07-18T11:51:17;102030.22;;;29.83;27.21
60307;BME280;46155;52.364;6.580;2022-07-18T11:53:48;102030.19;;;29.77;28.45
60307;BME280;46155;52.364;6.580;2022-07-18T11:56:14;102030.19;;;29.59;27.33
60307;BME280;46155;52.364;6.580;2022-07-18T11:58:41;102031.97;;;29.50;27.37
60307;BME280;46155;52.364;6.580;2022-07-18T12:01:07;102026.53;;;29.38;28.19
60307;BME280;46155;52.364;6.580;2022-07-18T12:03:34;102022.94;;;29.48;27.99
60307;BME280;46155;52.364;6.580;2022-07-18T12:06:10;102022.97;;;29.58;27.31
60307;BME280;46155;52.364;6.580;2022-07-18T12:08:49;102022.06;;;29.65;26.27
60307;BME280;46155;52.364;6.580;2022-07-18T12:11:35;102027.47;;;29.74;27.72
60307;BME280;46155;52.364;6.580;2022-07-18T12:16:44;102020.28;;;29.84;27.63
60307;BME280;46155;52.364;6.580;2022-07-18T12:21:52;102015.78;;;29.84;26.66
60307;BME280;46155;52.364;6.580;2022-07-18T12:24:38;102006.75;;;29.92;27.11
60307;BME280;46155;52.364;6.580;2022-07-18T12:27:25;102008.56;;;29.96;27.12
60307;BME280;46155;52.364;6.580;2022-07-18T12:33:13;102001.34;;;30.07;26.95
60307;BME280;46155;52.364;6.580;2022-07-18T12:37:53;102001.31;;;30.16;26.06
60307;BME280;46155;52.364;6.580;2022-07-18T12:40:19;102001.31;;;30.22;27.84
60307;BME280;46155;52.364;6.580;2022-07-18T12:42:45;102001.28;;;30.32;27.31
60307;BME280;46155;52.364;6.580;2022-07-18T12:45:11;102001.25;;;30.41;27.91
60307;BME280;46155;52.364;6.580;2022-07-18T12:47:38;102012.13;;;30.39;27.03
60307;BME280;46155;52.364;6.580;2022-07-18T12:50:05;101993.16;;;30.46;26.53
60307;BME280;46155;52.364;6.580;2022-07-18T12:52:31;102000.38;;;30.45;28.25
60307;BME280;46155;52.364;6.580;2022-07-18T12:54:56;101990.44;;;30.41;27.93
60307;BME280;46155;52.364;6.580;2022-07-18T12:57:22;101986.78;;;30.42;26.38
60307;BME280;46155;52.364;6.580;2022-07-18T12:59:48;101982.31;;;30.33;26.46
60307;BME280;46155;52.364;6.580;2022-07-18T13:02:14;101992.25;;;30.36;27.88
60307;BME280;46155;52.364;6.580;2022-07-18T13:04:40;101977.81;;;30.37;26.56
60307;BME280;46155;52.364;6.580;2022-07-18T13:07:05;101977.81;;;30.43;26.56
60307;BME280;46155;52.364;6.580;2022-07-18T13:09:31;101977.78;;;30.40;26.85
60307;BME280;46155;52.364;6.580;2022-07-18T13:11:56;101975.09;;;30.37;26.80
60307;BME280;46155;52.364;6.580;2022-07-18T13:14:21;101968.75;;;30.38;25.61
60307;BME280;46155;52.364;6.580;2022-07-18T13:16:47;101971.47;;;30.36;26.12
60307;BME280;46155;52.364;6.580;2022-07-18T13:19:14;101971.50;;;30.43;27.44
60307;BME280;46155;52.364;6.580;2022-07-18T13:21:41;101964.22;;;30.42;27.08
60307;BME280;46155;52.364;6.580;2022-07-18T13:24:06;101957.94;;;30.35;25.52
60307;BME280;46155;52.364;6.580;2022-07-18T13:26:32;101958.88;;;30.32;26.85
60307;BME280;46155;52.364;6.580;2022-07-18T13:28:57;101965.19;;;30.20;25.05
60307;BME280;46155;52.364;6.580;2022-07-18T13:31:22;101962.47;;;30.22;27.05
60307;BME280;46155;52.364;6.580;2022-07-18T13:33:48;101966.97;;;30.28;26.92
60307;BME280;46155;52.364;6.580;2022-07-18T13:36:15;101952.50;;;30.35;26.74
60307;BME280;46155;52.364;6.580;2022-07-18T13:38:41;101957.00;;;30.39;27.06
60307;BME280;46155;52.364;6.580;2022-07-18T13:41:06;101957.03;;;30.47;27.32
60307;BME280;46155;52.364;6.580;2022-07-18T13:43:31;101943.47;;;30.51;28.26
60307;BME280;46155;52.364;6.580;2022-07-18T13:45:57;101947.94;;;30.59;26.52
60307;BME280;46155;52.364;6.580;2022-07-18T13:48:22;101935.31;;;30.54;27.67
60307;BME280;46155;52.364;6.580;2022-07-18T13:50:48;101945.25;;;30.55;26.71
60307;BME280;46155;52.364;6.580;2022-07-18T13:53:13;101930.78;;;30.60;26.83
60307;BME280;46155;52.364;6.580;2022-07-18T13:55:38;101937.06;;;30.66;27.16
60307;BME280;46155;52.364;6.580;2022-07-18T13:58:05;101932.56;;;30.64;26.31
60307;BME280;46155;52.364;6.580;2022-07-18T14:00:30;101938.81;;;30.72;27.38
60307;BME280;46155;52.364;6.580;2022-07-18T14:02:55;101930.72;;;30.73;25.39
60307;BME280;46155;52.364;6.580;2022-07-18T14:05:21;101937.94;;;30.70;27.04
60307;BME280;46155;52.364;6.580;2022-07-18T14:07:46;101934.38;;;30.62;27.00
60307;BME280;46155;52.364;6.580;2022-07-18T14:10:14;101931.66;;;30.69;28.44
60307;BME280;46155;52.364;6.580;2022-07-18T14:12:39;101924.34;;;30.81;27.78
60307;BME280;46155;52.364;6.580;2022-07-18T14:15:05;101926.13;;;30.80;28.58
60307;BME280;46155;52.364;6.580;2022-07-18T14:17:30;101929.66;;;30.95;26.63
60307;BME280;46155;52.364;6.580;2022-07-18T14:19:58;101925.19;;;30.94;27.88
60307;BME280;46155;52.364;6.580;2022-07-18T14:22:23;101927.91;;;30.92;25.23
60307;BME280;46155;52.364;6.580;2022-07-18T14:24:48;101916.22;;;30.76;27.12
60307;BME280;46155;52.364;6.580;2022-07-18T14:27:14;101911.75;;;30.73;28.12
60307;BME280;46155;52.364;6.580;2022-07-18T14:29:39;101912.63;;;30.74;27.77
60307;BME280;46155;52.364;6.580;2022-07-18T14:32:04;101912.63;;;30.76;27.60
60307;BME280;46155;52.364;6.580;2022-07-18T14:34:30;101912.63;;;30.74;27.20
60307;BME280;46155;52.364;6.580;2022-07-18T14:36:55;101904.44;;;30.82;29.13
60307;BME280;46155;52.364;6.580;2022-07-18T14:39:20;101910.72;;;30.91;28.42
60307;BME280;46155;52.364;6.580;2022-07-18T14:41:46;101896.22;;;30.96;28.27
60307;BME280;46155;52.364;6.580;2022-07-18T14:44:11;101904.41;;;30.91;28.71
60307;BME280;46155;52.364;6.580;2022-07-18T14:46:36;101898.06;;;30.94;27.60
60307;BME280;46155;52.364;6.580;2022-07-18T14:49:02;101901.66;;;30.96;29.01
60307;BME280;46155;52.364;6.580;2022-07-18T14:51:27;101890.75;;;31.00;28.13
60307;BME280;46155;52.364;6.580;2022-07-18T14:53:52;101884.56;;;30.84;26.49
60307;BME280;46155;52.364;6.580;2022-07-18T14:56:17;101884.72;;;30.60;26.81
60307;BME280;46155;52.364;6.580;2022-07-18T14:58:43;101884.75;;;30.56;27.12
60307;BME280;46155;52.364;6.580;2022-07-18T15:01:09;101881.09;;;30.64;28.60
60307;BME280;46155;52.364;6.580;2022-07-18T15:03:34;101888.28;;;30.69;28.05
60307;BME280;46155;52.364;6.580;2022-07-18T15:05:59;101889.13;;;30.79;28.58
60307;BME280;46155;52.364;6.580;2022-07-18T15:08:25;101886.38;;;30.82;27.92
60307;BME280;46155;52.364;6.580;2022-07-18T15:10:50;101886.34;;;30.88;28.55
60307;BME280;46155;52.364;6.580;2022-07-18T15:13:15;101888.13;;;30.93;28.56
60307;BME280;46155;52.364;6.580;2022-07-18T15:15:40;101879.06;;;30.95;28.55
60307;BME280;46155;52.364;6.580;2022-07-18T15:18:06;101886.28;;;31.02;28.57
60307;BME280;46155;52.364;6.580;2022-07-18T15:20:31;101872.75;;;31.01;28.69
60307;BME280;46155;52.364;6.580;2022-07-18T15:22:56;101873.59;;;31.00;28.07
60307;BME280;46155;52.364;6.580;2022-07-18T15:25:22;101866.38;;;30.99;27.26
60307;BME280;46155;52.364;6.580;2022-07-18T15:27:47;101862.78;;;30.97;27.35
60307;BME280;46155;52.364;6.580;2022-07-18T15:30:12;101861.00;;;30.94;27.14
60307;BME280;46155;52.364;6.580;2022-07-18T15:32:38;101865.53;;;30.94;28.61
60307;BME280;46155;52.364;6.580;2022-07-18T15:35:04;101860.09;;;30.94;27.80
60307;BME280;46155;52.364;6.580;2022-07-18T15:37:30;101858.28;;;30.93;28.29
60307;BME280;46155;52.364;6.580;2022-07-18T15:39:55;101852.88;;;30.94;27.20
60307;BME280;46155;52.364;6.580;2022-07-18T15:42:20;101851.97;;;30.94;27.56
60307;BME280;46155;52.364;6.580;2022-07-18T15:44:46;101852.84;;;30.96;27.86
60307;BME280;46155;52.364;6.580;2022-07-18T15:47:11;101847.44;;;30.93;27.42
60307;BME280;46155;52.364;6.580;2022-07-18T15:49:37;101845.63;;;30.95;28.04
60307;BME280;46155;52.364;6.580;2022-07-18T15:52:04;101842.00;;;30.96;26.99
60307;BME280;46155;52.364;6.580;2022-07-18T15:54:31;101842.91;;;30.99;27.37
60307;BME280;46155;52.364;6.580;2022-07-18T15:56:57;101840.16;;;31.04;27.60
60307;BME280;46155;52.364;6.580;2022-07-18T15:59:22;101841.06;;;31.04;28.09
60307;BME280;46155;52.364;6.580;2022-07-18T16:01:47;101843.75;;;31.09;29.02
60307;BME280;46155;52.364;6.580;2022-07-18T16:04:13;101832.88;;;31.11;28.20
60307;BME280;46155;52.364;6.580;2022-07-18T16:06:39;101831.06;;;31.11;26.27
60307;BME280;46155;52.364;6.580;2022-07-18T16:09:05;101820.22;;;31.11;27.16
60307;BME280;46155;52.364;6.580;2022-07-18T16:11:30;101822.97;;;31.08;27.13
60307;BME280;46155;52.364;6.580;2022-07-18T16:13:59;101818.47;;;31.04;27.39
60307;BME280;46155;52.364;6.580;2022-07-18T16:16:24;101817.56;;;31.00;27.22
60307;BME280;46155;52.364;6.580;2022-07-18T16:18:50;101816.66;;;31.00;26.20
60307;BME280;46155;52.364;6.580;2022-07-18T16:21:15;101810.34;;;30.99;26.63
60307;BME280;46155;52.364;6.580;2022-07-18T16:23:41;101813.97;;;30.98;27.02
60307;BME280;46155;52.364;6.580;2022-07-18T16:26:07;101806.75;;;30.96;27.31
60307;BME280;46155;52.364;6.580;2022-07-18T16:28:33;101806.75;;;30.96;26.30
60307;BME280;46155;52.364;6.580;2022-07-18T16:30:59;101799.56;;;30.91;26.58